createdAt,value
2016-11-12T00:01:08.018Z,0
2016-11-12T00:02:20.925Z,0
2016-11-12T00:03:35.493Z,0
2016-11-12T00:04:50.446Z,0
2016-11-12T00:06:06.065Z,0
2016-11-12T00:07:22.113Z,0
2016-11-12T00:08:34.977Z,0
2016-11-12T00:09:50.138Z,0
2016-11-12T00:11:05.991Z,0
2016-11-12T00:12:20.230Z,0
2016-11-12T00:13:34.345Z,0
2016-11-12T00:14:50.548Z,0
2016-11-12T00:16:07.067Z,0
2016-11-12T00:17:23.505Z,0
2016-11-12T00:18:37.745Z,0
2016-11-12T00:19:53.931Z,0
2016-11-12T00:21:10.876Z,0
2016-11-12T00:22:26.712Z,0
2016-11-12T00:23:43.439Z,0
2016-11-12T00:24:57.948Z,0
2016-11-12T00:26:13.810Z,0
2016-11-12T00:27:29.788Z,0
2016-11-12T00:28:43.469Z,0
2016-11-12T00:29:57.592Z,0
2016-11-12T00:31:14.064Z,0
2016-11-12T00:32:28.842Z,0
2016-11-12T00:33:42.004Z,0
2016-11-12T00:34:58.058Z,0
2016-11-12T00:36:14.527Z,0
2016-11-12T00:37:29.043Z,0
2016-11-12T00:38:45.300Z,0
2016-11-12T00:39:58.569Z,0
2016-11-12T00:41:14.294Z,0
2016-11-12T00:42:30.313Z,0
2016-11-12T00:43:45.216Z,0
2016-11-12T00:45:01.284Z,0
2016-11-12T00:46:16.041Z,0
2016-11-12T00:47:29.079Z,0
2016-11-12T00:48:45.718Z,0
2016-11-12T00:50:00.266Z,0
2016-11-12T00:51:14.633Z,0
2016-11-12T00:52:30.671Z,0
2016-11-12T00:53:45.916Z,0
2016-11-12T00:54:59.971Z,0
2016-11-12T00:56:15.809Z,0
2016-11-12T00:57:28.548Z,0
2016-11-12T00:58:44.817Z,0
2016-11-12T01:00:00.625Z,0
2016-11-12T01:01:16.469Z,0
2016-11-12T01:02:32.219Z,0
2016-11-12T01:03:48.884Z,0
2016-11-12T01:05:05.496Z,0
2016-11-12T01:06:19.937Z,0
2016-11-12T01:07:34.857Z,0
2016-11-12T01:08:48.137Z,0
2016-11-12T01:10:04.137Z,0
2016-11-12T01:11:18.294Z,0
2016-11-12T01:12:33.065Z,0
2016-11-12T01:13:47.514Z,0
2016-11-12T01:15:01.264Z,0
2016-11-12T01:16:16.913Z,0
2016-11-12T01:17:28.694Z,0
2016-11-12T01:18:42.736Z,0
2016-11-12T01:19:59.120Z,0
2016-11-12T01:21:13.146Z,0
2016-11-12T01:22:27.968Z,0
2016-11-12T01:23:38.039Z,0
2016-11-12T01:24:53.706Z,0
2016-11-12T01:26:08.293Z,0
2016-11-12T01:27:19.935Z,0
2016-11-12T01:28:36.466Z,0
2016-11-12T01:29:51.266Z,0
2016-11-12T01:31:04.591Z,0
2016-11-12T01:32:19.009Z,0
2016-11-12T01:33:33.735Z,0
2016-11-12T01:34:47.807Z,0
2016-11-12T01:36:02.616Z,0
2016-11-12T01:37:17.013Z,0
2016-11-12T01:38:31.393Z,0
2016-11-12T01:39:44.614Z,0
2016-11-12T01:41:00.783Z,0
2016-11-12T01:42:15.913Z,0
2016-11-12T01:43:31.827Z,0
2016-11-12T01:44:46.050Z,0
2016-11-12T01:46:00.615Z,0
2016-11-12T01:47:13.758Z,0
2016-11-12T01:48:30.167Z,0
2016-11-12T01:49:45.005Z,0
2016-11-12T01:50:59.259Z,0
2016-11-12T01:52:15.253Z,0
2016-11-12T01:53:31.342Z,0
2016-11-12T01:54:45.988Z,0
2016-11-12T01:55:58.716Z,0
2016-11-12T01:57:13.907Z,0
2016-11-12T01:58:29.037Z,0
2016-11-12T01:59:43.821Z,0
2016-11-12T02:00:59.995Z,0
2016-11-12T02:02:14.574Z,0
2016-11-12T02:03:28.794Z,0
2016-11-12T02:04:41.893Z,0
2016-11-12T02:05:57.728Z,0
2016-11-12T02:07:13.775Z,0
2016-11-12T02:08:29.497Z,0
2016-11-12T02:09:44.990Z,0
2016-11-12T02:10:59.088Z,0
2016-11-12T02:12:14.952Z,0
2016-11-12T02:13:28.247Z,0
2016-11-12T02:14:42.664Z,0
2016-11-12T02:15:58.751Z,0
2016-11-12T02:17:13.657Z,0
2016-11-12T02:18:25.523Z,0
2016-11-12T02:19:41.246Z,0
2016-11-12T02:20:57.268Z,0
2016-11-12T02:22:10.390Z,0
2016-11-12T02:23:24.990Z,0
2016-11-12T02:24:41.385Z,0
2016-11-12T02:25:57.686Z,0
2016-11-12T02:27:12.999Z,0
2016-11-12T02:28:27.755Z,0
2016-11-12T02:29:42.408Z,0
2016-11-12T02:30:58.447Z,0
2016-11-12T02:32:13.731Z,0
2016-11-12T02:33:26.882Z,0
2016-11-12T02:34:41.362Z,0
2016-11-12T02:35:57.441Z,0
2016-11-12T02:37:12.097Z,0
2016-11-12T02:38:28.201Z,0
2016-11-12T02:39:44.041Z,0
2016-11-12T02:41:00.039Z,0
2016-11-12T02:42:15.732Z,0
2016-11-12T02:43:31.949Z,0
2016-11-12T02:44:46.863Z,0
2016-11-12T02:46:01.461Z,0
2016-11-12T02:47:16.227Z,0
2016-11-12T02:48:30.678Z,0
2016-11-12T02:49:43.783Z,0
2016-11-12T02:50:56.847Z,0
2016-11-12T02:52:12.686Z,0
2016-11-12T02:53:28.963Z,0
2016-11-12T02:54:45.005Z,0
2016-11-12T02:55:58.123Z,0
2016-11-12T02:57:11.203Z,0
2016-11-12T02:58:27.036Z,0
2016-11-12T02:59:41.787Z,0
2016-11-12T03:00:56.893Z,0
2016-11-12T03:02:10.305Z,0
2016-11-12T03:03:24.492Z,0
2016-11-12T03:04:38.882Z,0
2016-11-12T03:05:54.920Z,0
2016-11-12T03:07:10.015Z,0
2016-11-12T03:08:23.006Z,0
2016-11-12T03:09:36.916Z,0
2016-11-12T03:10:52.222Z,0
2016-11-12T03:12:06.636Z,0
2016-11-12T03:13:20.895Z,0
2016-11-12T03:14:36.696Z,0
2016-11-12T03:15:52.858Z,0
2016-11-12T03:17:05.992Z,0
2016-11-12T03:18:21.805Z,0
2016-11-12T03:19:37.295Z,0
2016-11-12T03:20:52.034Z,0
2016-11-12T03:22:06.273Z,0
2016-11-12T03:23:19.431Z,0
2016-11-12T03:24:33.218Z,0
2016-11-12T03:25:46.500Z,0
2016-11-12T03:27:01.849Z,0
2016-11-12T03:28:17.955Z,0
2016-11-12T03:29:32.172Z,0
2016-11-12T03:30:45.277Z,0
2016-11-12T03:31:56.623Z,0
2016-11-12T03:33:09.536Z,0
2016-11-12T03:34:22.726Z,0
2016-11-12T03:35:38.387Z,0
2016-11-12T03:36:53.682Z,0
2016-11-12T03:38:05.537Z,0
2016-11-12T03:39:21.801Z,0
2016-11-12T03:40:38.261Z,0
2016-11-12T03:41:52.770Z,0
2016-11-12T03:43:04.484Z,0
2016-11-12T03:44:17.393Z,0
2016-11-12T03:45:31.926Z,0
2016-11-12T03:46:46.374Z,0
2016-11-12T03:48:00.072Z,0
2016-11-12T03:49:15.955Z,0
2016-11-12T03:50:31.777Z,0
2016-11-12T03:51:45.978Z,0
2016-11-12T03:53:00.542Z,0
2016-11-12T03:54:12.014Z,0
2016-11-12T03:55:27.674Z,0
2016-11-12T03:56:42.227Z,0
2016-11-12T03:57:56.434Z,0
2016-11-12T03:59:11.328Z,0
2016-11-12T04:00:25.893Z,0
2016-11-12T04:01:41.256Z,0
2016-11-12T04:02:57.529Z,0
2016-11-12T04:04:13.182Z,0
2016-11-12T04:05:28.640Z,0
2016-11-12T04:06:43.279Z,0
2016-11-12T04:07:57.792Z,0
2016-11-12T04:09:11.008Z,0
2016-11-12T04:10:24.312Z,0
2016-11-12T04:11:38.995Z,0
2016-11-12T04:12:53.473Z,0
2016-11-12T04:14:06.356Z,0
2016-11-12T04:15:22.377Z,0
2016-11-12T04:16:36.636Z,0
2016-11-12T04:17:51.074Z,0
2016-11-12T04:19:03.609Z,0
2016-11-12T04:20:17.695Z,0
2016-11-12T04:21:31.911Z,0
2016-11-12T04:22:46.119Z,0
2016-11-12T04:24:00.289Z,0
2016-11-12T04:25:13.503Z,0
2016-11-12T04:26:29.792Z,0
2016-11-12T04:27:43.895Z,0
2016-11-12T04:28:55.316Z,0
2016-11-12T04:30:10.687Z,0
2016-11-12T04:31:22.227Z,0
2016-11-12T04:32:34.735Z,0
2016-11-12T04:33:47.850Z,0
2016-11-12T04:35:00.603Z,0
2016-11-12T04:36:13.406Z,0
2016-11-12T04:37:29.454Z,0
2016-11-12T04:38:43.711Z,0
2016-11-12T04:39:58.118Z,0
2016-11-12T04:41:11.071Z,0
2016-11-12T04:42:25.259Z,0
2016-11-12T04:43:38.136Z,0
2016-11-12T04:44:51.276Z,0
2016-11-12T04:46:05.476Z,0
2016-11-12T04:47:20.579Z,0
2016-11-12T04:48:32.250Z,0
2016-11-12T04:49:45.211Z,0
2016-11-12T04:50:55.613Z,0
2016-11-12T04:52:10.233Z,0
2016-11-12T04:53:23.148Z,0
2016-11-12T04:54:38.787Z,0
2016-11-12T04:55:51.584Z,0
2016-11-12T04:57:04.582Z,0
2016-11-12T04:58:17.501Z,0
2016-11-12T04:59:30.020Z,0
2016-11-12T05:00:42.791Z,0
2016-11-12T05:01:57.704Z,0
2016-11-12T05:03:11.559Z,0
2016-11-12T05:04:26.012Z,0
2016-11-12T05:05:40.908Z,0
2016-11-12T05:06:55.600Z,0
2016-11-12T05:08:11.792Z,0
2016-11-12T05:09:26.174Z,0
2016-11-12T05:10:40.583Z,0
2016-11-12T05:11:55.326Z,0
2016-11-12T05:13:10.151Z,0
2016-11-12T05:14:26.163Z,0
2016-11-12T05:15:40.563Z,0
2016-11-12T05:16:53.942Z,0
2016-11-12T05:18:08.908Z,0
2016-11-12T05:19:23.429Z,0
2016-11-12T05:20:36.350Z,0
2016-11-12T05:21:50.392Z,0
2016-11-12T05:23:06.593Z,0
2016-11-12T05:24:21.537Z,0
2016-11-12T05:25:37.537Z,0
2016-11-12T05:26:52.952Z,0
2016-11-12T05:28:08.465Z,0
2016-11-12T05:29:23.020Z,0
2016-11-12T05:30:35.781Z,0
2016-11-12T05:31:51.842Z,0
2016-11-12T05:33:07.498Z,0
2016-11-12T05:34:19.437Z,0
2016-11-12T05:35:33.524Z,0
2016-11-12T05:36:47.930Z,0
2016-11-12T05:38:01.794Z,0
2016-11-12T05:39:16.135Z,0
2016-11-12T05:40:30.642Z,0
2016-11-12T05:41:46.706Z,0
2016-11-12T05:43:01.092Z,0
2016-11-12T05:44:15.871Z,0
2016-11-12T05:45:32.099Z,0
2016-11-12T05:46:46.845Z,0
2016-11-12T05:47:59.597Z,0
2016-11-12T05:49:12.473Z,0
2016-11-12T05:50:25.595Z,0
2016-11-12T05:51:40.154Z,0
2016-11-12T05:52:53.445Z,0
2016-11-12T05:54:09.476Z,0
2016-11-12T05:55:22.700Z,0
2016-11-12T05:56:36.387Z,0
2016-11-12T05:57:50.807Z,0
2016-11-12T05:59:06.690Z,0
2016-11-12T06:00:19.836Z,0
2016-11-12T06:01:33.032Z,0
2016-11-12T06:02:46.292Z,0
2016-11-12T06:03:58.124Z,0
2016-11-12T06:05:09.795Z,0
2016-11-12T06:06:25.452Z,0
2016-11-12T06:07:40.941Z,0
2016-11-12T06:08:54.131Z,0
2016-11-12T06:10:07.271Z,0
2016-11-12T06:11:21.890Z,0
2016-11-12T06:12:38.322Z,0
2016-11-12T06:13:53.101Z,0
2016-11-12T06:15:06.230Z,0
2016-11-12T06:16:20.909Z,0
2016-11-12T06:17:37.380Z,0
2016-11-12T06:18:51.246Z,0
2016-11-12T06:20:05.401Z,0
2016-11-12T06:21:19.651Z,0
2016-11-12T06:22:34.209Z,0
2016-11-12T06:23:49.210Z,0
2016-11-12T06:25:03.617Z,0
2016-11-12T06:26:19.395Z,0
2016-11-12T06:27:34.118Z,0
2016-11-12T06:28:48.528Z,5
2016-11-12T06:30:02.784Z,5
2016-11-12T06:31:18.831Z,5
2016-11-12T06:32:32.782Z,5
2016-11-12T06:33:48.624Z,10
2016-11-12T06:35:04.769Z,10
2016-11-12T06:36:17.394Z,10
2016-11-12T06:37:31.752Z,15
2016-11-12T06:38:47.631Z,15
2016-11-12T06:40:01.823Z,15
2016-11-12T06:41:18.173Z,20
2016-11-12T06:42:34.055Z,20
2016-11-12T06:43:49.705Z,25
2016-11-12T06:45:04.289Z,25
2016-11-12T06:46:18.493Z,30
2016-11-12T06:47:32.848Z,30
2016-11-12T06:48:46.217Z,30
2016-11-12T06:49:59.731Z,35
2016-11-12T06:51:14.044Z,40
2016-11-12T06:52:27.298Z,45
2016-11-12T06:53:42.555Z,50
2016-11-12T06:54:58.627Z,55
2016-11-12T06:56:14.291Z,60
2016-11-12T06:57:29.997Z,65
2016-11-12T06:58:42.971Z,65
2016-11-12T06:59:58.648Z,70
2016-11-12T07:01:13.085Z,75
2016-11-12T07:02:27.459Z,80
2016-11-12T07:03:40.427Z,85
2016-11-12T07:04:56.118Z,90
2016-11-12T07:06:12.135Z,90
2016-11-12T07:07:27.670Z,95
2016-11-12T07:08:42.430Z,100
2016-11-12T07:09:54.162Z,105
2016-11-12T07:11:09.115Z,110
2016-11-12T07:12:23.232Z,110
2016-11-12T07:13:36.329Z,115
2016-11-12T07:14:50.768Z,120
2016-11-12T07:16:03.550Z,125
2016-11-12T07:17:19.089Z,130
2016-11-12T07:18:30.814Z,135
2016-11-12T07:19:45.491Z,140
2016-11-12T07:21:00.102Z,140
2016-11-12T07:22:15.575Z,145
2016-11-12T07:23:29.633Z,150
2016-11-12T07:24:44.223Z,165
2016-11-12T07:26:00.028Z,175
2016-11-12T07:27:11.946Z,195
2016-11-12T07:28:26.221Z,210
2016-11-12T07:29:42.236Z,215
2016-11-12T07:30:56.228Z,220
2016-11-12T07:32:12.039Z,230
2016-11-12T07:33:27.864Z,235
2016-11-12T07:34:42.225Z,235
2016-11-12T07:35:54.848Z,235
2016-11-12T07:37:07.803Z,235
2016-11-12T07:38:23.109Z,240
2016-11-12T07:39:37.732Z,250
2016-11-12T07:40:53.281Z,255
2016-11-12T07:42:05.833Z,255
2016-11-12T07:43:20.103Z,275
2016-11-12T07:44:34.837Z,280
2016-11-12T07:45:48.472Z,285
2016-11-12T07:47:03.134Z,295
2016-11-12T07:48:17.396Z,295
2016-11-12T07:49:33.936Z,295
2016-11-12T07:50:47.099Z,300
2016-11-12T07:52:01.118Z,315
2016-11-12T07:53:14.114Z,315
2016-11-12T07:54:30.044Z,295
2016-11-12T07:55:44.666Z,325
2016-11-12T07:56:59.298Z,300
2016-11-12T07:58:12.471Z,255
2016-11-12T07:59:25.660Z,275
2016-11-12T08:00:41.359Z,280
2016-11-12T08:01:55.970Z,305
2016-11-12T08:03:08.935Z,305
2016-11-12T08:04:24.579Z,315
2016-11-12T08:05:38.819Z,305
2016-11-12T08:06:53.551Z,250
2016-11-12T08:08:09.910Z,255
2016-11-12T08:09:24.706Z,300
2016-11-12T08:10:39.138Z,320
2016-11-12T08:11:53.833Z,285
2016-11-12T08:13:10.296Z,295
2016-11-12T08:14:26.904Z,305
2016-11-12T08:15:42.759Z,340
2016-11-12T08:16:58.784Z,365
2016-11-12T08:18:11.893Z,390
2016-11-12T08:19:25.425Z,430
2016-11-12T08:20:40.525Z,410
2016-11-12T08:21:56.565Z,440
2016-11-12T08:23:12.587Z,480
2016-11-12T08:24:29.174Z,505
2016-11-12T08:25:45.540Z,525
2016-11-12T08:26:58.739Z,565
2016-11-12T08:28:14.423Z,580
2016-11-12T08:29:27.241Z,610
2016-11-12T08:30:41.619Z,610
2016-11-12T08:31:57.321Z,610
2016-11-12T08:33:13.408Z,570
2016-11-12T08:34:29.152Z,605
2016-11-12T08:35:45.110Z,625
2016-11-12T08:36:59.331Z,635
2016-11-12T08:38:14.628Z,645
2016-11-12T08:39:31.042Z,675
2016-11-12T08:40:44.378Z,705
2016-11-12T08:41:57.727Z,730
2016-11-12T08:43:12.409Z,745
2016-11-12T08:44:28.067Z,760
2016-11-12T08:45:44.112Z,780
2016-11-12T08:46:58.526Z,785
2016-11-12T08:48:14.188Z,800
2016-11-12T08:49:30.083Z,870
2016-11-12T08:50:43.446Z,945
2016-11-12T08:51:57.959Z,980
2016-11-12T08:53:12.587Z,1015
2016-11-12T08:54:28.639Z,1060
2016-11-12T08:55:45.141Z,1105
2016-11-12T08:57:01.035Z,1100
2016-11-12T08:58:17.340Z,1140
2016-11-12T08:59:31.733Z,1220
2016-11-12T09:00:47.414Z,1380
2016-11-12T09:02:02.165Z,1415
2016-11-12T09:03:17.203Z,1595
2016-11-12T09:04:33.124Z,1620
2016-11-12T09:05:49.101Z,1600
2016-11-12T09:07:03.490Z,1530
2016-11-12T09:08:19.107Z,1480
2016-11-12T09:09:33.331Z,1515
2016-11-12T09:10:50.143Z,1495
2016-11-12T09:12:03.221Z,1540
2016-11-12T09:13:17.490Z,1500
2016-11-12T09:14:30.257Z,1395
2016-11-12T09:15:43.047Z,1360
2016-11-12T09:16:57.497Z,1370
2016-11-12T09:18:10.526Z,1430
2016-11-12T09:19:26.440Z,1450
2016-11-12T09:20:42.317Z,1555
2016-11-12T09:21:57.823Z,1520
2016-11-12T09:23:13.881Z,1585
2016-11-12T09:24:28.281Z,1400
2016-11-12T09:25:39.650Z,1490
2016-11-12T09:26:55.896Z,1555
2016-11-12T09:28:11.037Z,1610
2016-11-12T09:29:26.534Z,1575
2016-11-12T09:30:42.968Z,1515
2016-11-12T09:31:54.602Z,1440
2016-11-12T09:33:10.858Z,1260
2016-11-12T09:34:25.992Z,1265
2016-11-12T09:35:41.651Z,1405
2016-11-12T09:36:56.472Z,950
2016-11-12T09:38:09.235Z,1465
2016-11-12T09:39:25.423Z,1665
2016-11-12T09:40:40.353Z,1690
2016-11-12T09:41:56.556Z,1380
2016-11-12T09:43:11.332Z,1605
2016-11-12T09:44:24.309Z,1700
2016-11-12T09:45:37.067Z,1795
2016-11-12T09:46:52.557Z,1805
2016-11-12T09:48:08.180Z,1825
2016-11-12T09:49:21.474Z,1535
2016-11-12T09:50:37.905Z,1265
2016-11-12T09:51:50.790Z,1270
2016-11-12T09:53:05.372Z,895
2016-11-12T09:54:19.950Z,705
2016-11-12T09:55:34.283Z,1130
2016-11-12T09:56:50.277Z,1645
2016-11-12T09:58:05.598Z,1750
2016-11-12T09:59:18.602Z,1655
2016-11-12T10:00:33.208Z,1475
2016-11-12T10:01:49.451Z,1525
2016-11-12T10:03:02.378Z,1425
2016-11-12T10:04:18.796Z,1220
2016-11-12T10:05:32.167Z,1280
2016-11-12T10:06:48.252Z,955
2016-11-12T10:08:03.763Z,1185
2016-11-12T10:09:19.830Z,1435
2016-11-12T10:10:33.201Z,1365
2016-11-12T10:11:49.657Z,1420
2016-11-12T10:13:06.118Z,1420
2016-11-12T10:14:21.067Z,1480
2016-11-12T10:15:35.699Z,1495
2016-11-12T10:16:48.615Z,1435
2016-11-12T10:18:01.563Z,1290
2016-11-12T10:19:17.748Z,1375
2016-11-12T10:20:32.709Z,1420
2016-11-12T10:21:48.744Z,1440
2016-11-12T10:23:02.971Z,1475
2016-11-12T10:24:18.275Z,1525
2016-11-12T10:25:32.857Z,1615
2016-11-12T10:26:46.714Z,1410
2016-11-12T10:28:01.515Z,1295
2016-11-12T10:29:17.181Z,820
2016-11-12T10:30:31.958Z,1060
2016-11-12T10:31:47.988Z,975
2016-11-12T10:33:02.579Z,755
2016-11-12T10:34:16.844Z,380
2016-11-12T10:35:31.123Z,320
2016-11-12T10:36:46.131Z,315
2016-11-12T10:38:01.375Z,310
2016-11-12T10:39:16.001Z,325
2016-11-12T10:40:30.224Z,345
2016-11-12T10:41:44.479Z,355
2016-11-12T10:43:00.536Z,655
2016-11-12T10:44:15.109Z,985
2016-11-12T10:45:31.342Z,370
2016-11-12T10:46:45.729Z,340
2016-11-12T10:47:59.958Z,330
2016-11-12T10:49:14.884Z,325
2016-11-12T10:50:30.723Z,320
2016-11-12T10:51:45.521Z,295
2016-11-12T10:53:01.193Z,305
2016-11-12T10:54:16.636Z,315
2016-11-12T10:55:31.657Z,315
2016-11-12T10:56:46.541Z,315
2016-11-12T10:58:02.746Z,315
2016-11-12T10:59:15.708Z,315
2016-11-12T11:00:28.854Z,315
2016-11-12T11:01:42.351Z,315
2016-11-12T11:02:58.883Z,310
2016-11-12T11:04:12.949Z,310
2016-11-12T11:05:28.635Z,305
2016-11-12T11:06:41.450Z,300
2016-11-12T11:07:57.113Z,300
2016-11-12T11:09:13.102Z,295
2016-11-12T11:10:29.374Z,295
2016-11-12T11:11:44.411Z,270
2016-11-12T11:12:57.981Z,245
2016-11-12T11:14:12.181Z,245
2016-11-12T11:15:25.721Z,280
2016-11-12T11:16:39.786Z,280
2016-11-12T11:17:56.180Z,285
2016-11-12T11:19:10.749Z,285
2016-11-12T11:20:26.385Z,285
2016-11-12T11:21:40.924Z,280
2016-11-12T11:22:55.775Z,280
2016-11-12T11:24:10.816Z,275
2016-11-12T11:25:23.760Z,270
2016-11-12T11:26:38.021Z,270
2016-11-12T11:27:49.770Z,270
2016-11-12T11:29:05.840Z,265
2016-11-12T11:30:21.928Z,265
2016-11-12T11:31:38.042Z,265
2016-11-12T11:32:52.918Z,265
2016-11-12T11:34:07.277Z,265
2016-11-12T11:35:21.804Z,260
2016-11-12T11:36:38.535Z,260
2016-11-12T11:37:54.919Z,255
2016-11-12T11:39:10.577Z,250
2016-11-12T11:40:26.639Z,255
2016-11-12T11:41:39.669Z,255
2016-11-12T11:42:51.542Z,250
2016-11-12T11:44:04.909Z,250
2016-11-12T11:45:21.528Z,245
2016-11-12T11:46:37.306Z,245
2016-11-12T11:47:51.912Z,245
2016-11-12T11:49:07.407Z,240
2016-11-12T11:50:23.512Z,240
2016-11-12T11:51:37.792Z,240
2016-11-12T11:52:52.719Z,240
2016-11-12T11:54:06.977Z,240
2016-11-12T11:55:20.695Z,240
2016-11-12T11:56:35.186Z,235
2016-11-12T11:57:49.209Z,235
2016-11-12T11:59:04.526Z,240
2016-11-12T12:00:19.480Z,235
2016-11-12T12:01:35.637Z,235
2016-11-12T12:02:48.959Z,235
2016-11-12T12:04:03.534Z,240
2016-11-12T12:05:20.207Z,240
2016-11-12T12:06:34.456Z,240
2016-11-12T12:07:50.870Z,240
2016-11-12T12:09:06.896Z,235
2016-11-12T12:10:22.936Z,235
2016-11-12T12:11:36.297Z,235
2016-11-12T12:12:50.747Z,235
2016-11-12T12:14:05.874Z,230
2016-11-12T12:15:19.457Z,230
2016-11-12T12:16:35.324Z,230
2016-11-12T12:17:50.117Z,225
2016-11-12T12:19:05.968Z,225
2016-11-12T12:20:18.982Z,225
2016-11-12T12:21:35.514Z,225
2016-11-12T12:22:51.690Z,220
2016-11-12T12:24:07.757Z,220
2016-11-12T12:25:20.699Z,220
2016-11-12T12:26:35.428Z,215
2016-11-12T12:27:51.889Z,215
2016-11-12T12:29:08.108Z,215
2016-11-12T12:30:22.737Z,210
2016-11-12T12:31:35.686Z,210
2016-11-12T12:32:48.548Z,210
2016-11-12T12:34:03.544Z,205
2016-11-12T12:35:16.664Z,205
2016-11-12T12:36:33.117Z,205
2016-11-12T12:37:48.947Z,205
2016-11-12T12:39:03.276Z,205
2016-11-12T12:40:19.153Z,205
2016-11-12T12:41:33.744Z,200
2016-11-12T12:42:49.413Z,200
2016-11-12T12:44:05.826Z,200
2016-11-12T12:45:20.731Z,200
2016-11-12T12:46:35.169Z,195
2016-11-12T12:47:49.762Z,200
2016-11-12T12:49:06.187Z,195
2016-11-12T12:50:22.495Z,195
2016-11-12T12:51:38.218Z,195
2016-11-12T12:52:51.043Z,195
2016-11-12T12:54:04.738Z,195
2016-11-12T12:55:19.101Z,195
2016-11-12T12:56:33.502Z,195
2016-11-12T12:57:46.475Z,195
2016-11-12T12:59:00.887Z,195
2016-11-12T13:00:16.570Z,195
2016-11-12T13:01:33.352Z,180
2016-11-12T13:02:49.559Z,155
2016-11-12T13:04:03.658Z,150
2016-11-12T13:05:18.073Z,150
2016-11-12T13:06:34.094Z,155
2016-11-12T13:07:50.671Z,160
2016-11-12T13:09:02.552Z,170
2016-11-12T13:10:17.118Z,160
2016-11-12T13:11:33.361Z,155
2016-11-12T13:12:47.954Z,155
2016-11-12T13:14:03.559Z,155
2016-11-12T13:15:19.244Z,165
2016-11-12T13:16:35.114Z,170
2016-11-12T13:17:49.860Z,180
2016-11-12T13:19:04.457Z,180
2016-11-12T13:20:20.472Z,175
2016-11-12T13:21:33.778Z,170
2016-11-12T13:22:49.823Z,165
2016-11-12T13:24:06.187Z,160
2016-11-12T13:25:19.310Z,160
2016-11-12T13:26:30.557Z,155
2016-11-12T13:27:46.003Z,160
2016-11-12T13:29:00.424Z,160
2016-11-12T13:30:16.201Z,165
2016-11-12T13:31:30.252Z,170
2016-11-12T13:32:44.813Z,170
2016-11-12T13:33:59.140Z,175
2016-11-12T13:35:14.261Z,170
2016-11-12T13:36:29.890Z,165
2016-11-12T13:37:45.960Z,160
2016-11-12T13:39:02.488Z,155
2016-11-12T13:40:15.797Z,155
2016-11-12T13:41:32.124Z,155
2016-11-12T13:42:47.925Z,160
2016-11-12T13:44:02.124Z,160
2016-11-12T13:45:18.152Z,165
2016-11-12T13:46:32.402Z,165
2016-11-12T13:47:46.670Z,160
2016-11-12T13:49:01.096Z,160
2016-11-12T13:50:17.347Z,160
2016-11-12T13:51:33.750Z,160
2016-11-12T13:52:46.857Z,155
2016-11-12T13:53:59.591Z,150
2016-11-12T13:55:16.165Z,150
2016-11-12T13:56:32.560Z,150
2016-11-12T13:57:48.071Z,150
2016-11-12T13:59:03.582Z,150
2016-11-12T14:00:19.083Z,150
2016-11-12T14:01:30.707Z,150
2016-11-12T14:02:45.168Z,150
2016-11-12T14:04:01.749Z,155
2016-11-12T14:05:17.111Z,155
2016-11-12T14:06:32.996Z,150
2016-11-12T14:07:49.041Z,145
2016-11-12T14:09:02.823Z,140
2016-11-12T14:10:18.516Z,140
2016-11-12T14:11:33.119Z,135
2016-11-12T14:12:48.387Z,135
2016-11-12T14:14:02.928Z,135
2016-11-12T14:15:15.909Z,130
2016-11-12T14:16:31.006Z,125
2016-11-12T14:17:47.455Z,120
2016-11-12T14:19:00.191Z,120
2016-11-12T14:20:14.663Z,110
2016-11-12T14:21:28.690Z,110
2016-11-12T14:22:44.002Z,110
2016-11-12T14:24:00.558Z,110
2016-11-12T14:25:15.901Z,110
2016-11-12T14:26:31.555Z,105
2016-11-12T14:27:46.503Z,105
2016-11-12T14:29:01.819Z,105
2016-11-12T14:30:17.847Z,105
2016-11-12T14:31:33.708Z,105
2016-11-12T14:32:48.693Z,105
2016-11-12T14:34:04.887Z,100
2016-11-12T14:35:18.877Z,105
2016-11-12T14:36:34.918Z,100
2016-11-12T14:37:51.160Z,100
2016-11-12T14:39:04.517Z,100
2016-11-12T14:40:20.308Z,100
2016-11-12T14:41:34.779Z,100
2016-11-12T14:42:49.077Z,100
2016-11-12T14:44:04.720Z,100
2016-11-12T14:45:19.140Z,95
2016-11-12T14:46:35.191Z,90
2016-11-12T14:47:48.152Z,90
2016-11-12T14:49:03.079Z,85
2016-11-12T14:50:17.544Z,85
2016-11-12T14:51:33.435Z,85
2016-11-12T14:52:46.619Z,85
2016-11-12T14:54:02.879Z,80
2016-11-12T14:55:18.574Z,80
2016-11-12T14:56:33.113Z,80
2016-11-12T14:57:49.140Z,75
2016-11-12T14:59:04.164Z,70
2016-11-12T15:00:19.680Z,70
2016-11-12T15:01:32.287Z,65
2016-11-12T15:02:45.401Z,65
2016-11-12T15:04:00.714Z,60
2016-11-12T15:05:15.139Z,60
2016-11-12T15:06:30.424Z,55
2016-11-12T15:07:44.461Z,50
2016-11-12T15:08:59.953Z,50
2016-11-12T15:10:12.771Z,45
2016-11-12T15:11:28.694Z,45
2016-11-12T15:12:41.731Z,40
2016-11-12T15:13:56.096Z,40
2016-11-12T15:15:11.595Z,35
2016-11-12T15:16:24.667Z,35
2016-11-12T15:17:37.684Z,35
2016-11-12T15:18:50.950Z,30
2016-11-12T15:20:07.202Z,30
2016-11-12T15:21:21.481Z,30
2016-11-12T15:22:34.770Z,30
2016-11-12T15:23:49.682Z,25
2016-11-12T15:25:05.547Z,25
2016-11-12T15:26:20.477Z,25
2016-11-12T15:27:36.007Z,25
2016-11-12T15:28:49.218Z,20
2016-11-12T15:30:02.153Z,20
2016-11-12T15:31:15.673Z,20
2016-11-12T15:32:30.214Z,15
2016-11-12T15:33:43.855Z,15
2016-11-12T15:34:57.870Z,15
2016-11-12T15:36:10.857Z,10
2016-11-12T15:37:27.250Z,10
2016-11-12T15:38:42.745Z,10
2016-11-12T15:39:57.145Z,10
2016-11-12T15:41:13.383Z,5
2016-11-12T15:42:27.351Z,5
2016-11-12T15:43:43.017Z,5
2016-11-12T15:44:57.378Z,5
2016-11-12T15:46:10.728Z,5
2016-11-12T15:47:27.148Z,5
2016-11-12T15:48:41.993Z,5
2016-11-12T15:49:55.411Z,0
2016-11-12T15:51:11.615Z,0
2016-11-12T15:52:27.306Z,0
2016-11-12T15:53:40.953Z,0
2016-11-12T15:54:56.912Z,0
2016-11-12T15:56:12.999Z,0
2016-11-12T15:57:28.917Z,0
2016-11-12T15:58:42.961Z,0
2016-11-12T15:59:57.381Z,0
2016-11-12T16:01:10.765Z,0
2016-11-12T16:02:26.600Z,0
2016-11-12T16:03:42.760Z,0
2016-11-12T16:04:58.995Z,0
2016-11-12T16:06:15.047Z,0
2016-11-12T16:07:28.779Z,0
2016-11-12T16:08:44.724Z,0
2016-11-12T16:10:00.771Z,0
2016-11-12T16:11:16.262Z,0
2016-11-12T16:12:31.758Z,0
2016-11-12T16:13:46.398Z,0
2016-11-12T16:15:01.871Z,0
2016-11-12T16:16:17.523Z,0
2016-11-12T16:17:33.153Z,0
2016-11-12T16:18:49.579Z,0
2016-11-12T16:20:06.156Z,0
2016-11-12T16:21:20.777Z,0
2016-11-12T16:22:34.056Z,0
2016-11-12T16:23:47.220Z,0
2016-11-12T16:25:02.498Z,0
2016-11-12T16:26:18.913Z,0
2016-11-12T16:27:35.320Z,0
2016-11-12T16:28:51.333Z,0
2016-11-12T16:30:05.716Z,0
2016-11-12T16:31:20.078Z,0
2016-11-12T16:32:35.026Z,0
2016-11-12T16:33:50.893Z,0
2016-11-12T16:35:05.090Z,0
2016-11-12T16:36:21.132Z,0
2016-11-12T16:37:35.032Z,0
2016-11-12T16:38:49.337Z,0
2016-11-12T16:40:03.795Z,0
2016-11-12T16:41:16.608Z,0
2016-11-12T16:42:32.473Z,0
2016-11-12T16:43:47.012Z,0
2016-11-12T16:45:01.196Z,0
2016-11-12T16:46:15.603Z,0
2016-11-12T16:47:30.111Z,0
2016-11-12T16:48:45.631Z,0
2016-11-12T16:50:01.156Z,0
2016-11-12T16:51:15.555Z,0
2016-11-12T16:52:30.304Z,0
2016-11-12T16:53:44.326Z,0
2016-11-12T16:54:57.248Z,0
2016-11-12T16:56:12.047Z,0
2016-11-12T16:57:27.366Z,0
2016-11-12T16:58:41.295Z,0
2016-11-12T16:59:54.143Z,0
2016-11-12T17:01:08.530Z,0
2016-11-12T17:02:24.565Z,0
2016-11-12T17:03:39.147Z,0
2016-11-12T17:04:55.199Z,0
2016-11-12T17:06:11.089Z,0
2016-11-12T17:07:23.844Z,0
2016-11-12T17:08:38.396Z,0
2016-11-12T17:09:54.465Z,0
2016-11-12T17:11:10.133Z,0
2016-11-12T17:12:24.268Z,0
2016-11-12T17:13:37.650Z,0
2016-11-12T17:14:53.370Z,0
2016-11-12T17:16:09.305Z,0
2016-11-12T17:17:25.984Z,0
2016-11-12T17:18:40.396Z,0
2016-11-12T17:19:54.562Z,0
2016-11-12T17:21:10.243Z,0
2016-11-12T17:22:24.654Z,0
2016-11-12T17:23:38.705Z,0
2016-11-12T17:24:54.531Z,0
2016-11-12T17:26:10.020Z,0
2016-11-12T17:27:26.072Z,0
2016-11-12T17:28:41.938Z,0
2016-11-12T17:29:55.097Z,0
2016-11-12T17:31:10.906Z,0
2016-11-12T17:32:23.656Z,0
2016-11-12T17:33:39.291Z,0
2016-11-12T17:34:54.230Z,0
2016-11-12T17:36:09.033Z,0
2016-11-12T17:37:24.849Z,0
2016-11-12T17:38:38.665Z,0
2016-11-12T17:39:53.576Z,0
2016-11-12T17:41:08.193Z,0
2016-11-12T17:42:22.233Z,0
2016-11-12T17:43:38.009Z,0
2016-11-12T17:44:53.894Z,0